Time;durP1;ratioP1;P1;durP2;ratioP2;P2;SDS_P1;SDS_P2;PMS_P1;PMS_P2;Temp;Humidity;BMP_temperature;BMP_pressure;BME280_temperature;BME280_humidity;BME280_pressure;Samples;Min_cycle;Max_cycle;Signal;HPM_P1;HPM_P2
2023/09/05 00:00:22;;;;;;;10.97;9.87;;;;;;;-143.84;93.23;45117.63;5070801;28;20492;-55
2023/09/05 00:02:50;;;;;;;8.10;7.40;;;;;;;-143.84;93.11;45090.97;5071127;28;20444;-56
2023/09/05 00:05:19;;;;;;;16.83;8.13;;;;;;;-143.84;93.11;45110.00;5071007;28;20436;-55
2023/09/05 00:07:47;;;;;;;11.53;8.67;;;;;;;-143.84;92.80;45117.63;5071011;28;20870;-55
2023/09/05 00:10:14;;;;;;;8.03;7.20;;;;;;;-143.84;93.03;45102.38;5070902;28;20437;-56
2023/09/05 00:12:42;;;;;;;12.00;8.80;;;;;;;-143.84;92.68;45104.28;5070778;28;20578;-55
2023/09/05 00:15:11;;;;;;;9.60;8.67;;;;;;;-143.84;92.43;45115.72;5071063;28;20440;-55
2023/09/05 00:17:38;;;;;;;17.90;8.90;;;;;;;-143.84;92.21;45098.56;5070625;28;20433;-56
2023/09/05 00:20:07;;;;;;;9.17;8.20;;;;;;;-143.84;92.03;45083.34;5070817;28;20484;-55
2023/09/05 00:22:34;;;;;;;9.10;7.97;;;;;;;-143.84;92.08;45083.34;5070753;28;20441;-56
2023/09/05 00:25:03;;;;;;;13.30;7.70;;;;;;;-143.84;91.62;45108.09;5070577;28;20491;-56
2023/09/05 00:27:30;;;;;;;15.03;7.53;;;;;;;-143.84;91.26;45108.09;5070618;28;20540;-55
2023/09/05 00:29:57;;;;;;;9.77;7.33;;;;;;;-143.84;91.27;45106.19;5070623;28;20507;-55
2023/09/05 00:32:24;;;;;;;7.77;7.07;;;;;;;-143.84;91.29;45090.97;5070551;28;20536;-55
2023/09/05 00:34:52;;;;;;;11.13;8.30;;;;;;;-143.84;91.49;45104.28;5070588;28;20449;-56
2023/09/05 00:37:22;;;;;;;9.20;7.90;;;;;;;-143.84;91.12;45098.56;5070506;28;20494;-56
2023/09/05 00:39:49;;;;;;;17.87;9.30;;;;;;;-143.84;90.55;45096.66;5070553;28;20488;-56
2023/09/05 00:42:18;;;;;;;10.20;7.87;;;;;;;-143.84;90.53;45193.78;5070761;28;20459;-56
2023/09/05 00:44:48;;;;;;;21.23;8.57;;;;;;;-143.84;91.09;45117.63;5070484;28;20445;-55
2023/09/05 00:47:16;;;;;;;11.43;8.33;;;;;;;-143.84;90.94;45108.09;5070278;28;20440;-55
2023/09/05 00:49:47;;;;;;;11.13;7.40;;;;;;;-143.84;91.61;45115.72;5070204;28;20449;-56
2023/09/05 00:52:15;;;;;;;10.33;7.50;;;;;;;-143.84;91.05;45098.56;5070082;28;20476;-56
2023/09/05 00:54:43;;;;;;;14.77;8.17;;;;;;;-143.84;90.67;45106.19;5070130;28;20441;-56
2023/09/05 00:57:14;;;;;;;13.10;7.73;;;;;;;-143.84;90.05;45087.16;5070283;28;20433;-56
2023/09/05 00:59:43;;;;;;;10.90;8.00;;;;;;;-143.84;89.58;45079.53;5069832;28;20892;-56
2023/09/05 01:02:10;;;;;;;10.20;7.33;;;;;;;-143.84;89.33;45104.28;5069774;28;20448;-56
2023/09/05 01:04:37;;;;;;;9.63;6.50;;;;;;;-143.84;88.99;45121.44;5069963;28;20876;-56
2023/09/05 01:07:12;;;;;;;11.20;7.47;;;;;;;-143.84;89.18;45115.72;5069397;28;20490;-55
2023/09/05 01:09:48;;;;;;;11.93;7.70;;;;;;;-143.84;88.71;45117.63;5069933;28;20800;-56
2023/09/05 01:12:17;;;;;;;18.53;7.60;;;;;;;-143.84;88.54;45100.47;5069840;28;20437;-56
2023/09/05 01:14:45;;;;;;;11.73;6.97;;;;;;;-143.84;88.17;45087.16;5069653;28;20448;-56
2023/09/05 01:17:12;;;;;;;9.13;7.20;;;;;;;-143.84;88.25;45087.16;5069460;28;20445;-56
2023/09/05 01:19:41;;;;;;;7.93;6.80;;;;;;;-143.84;88.17;45085.25;5069419;28;20472;-56
2023/09/05 01:22:18;;;;;;;8.60;7.50;;;;;;;-143.84;87.72;45119.53;5069658;28;20494;-56
2023/09/05 01:24:49;;;;;;;13.37;7.60;;;;;;;-143.84;87.90;45092.88;5069350;28;20470;-56
2023/09/05 01:27:22;;;;;;;14.70;7.00;;;;;;;-143.84;87.82;45087.16;5069478;28;20460;-56
2023/09/05 01:29:50;;;;;;;9.90;7.60;;;;;;;-143.84;88.50;45087.16;5069320;28;20901;-56
2023/09/05 01:32:19;;;;;;;12.50;7.93;;;;;;;-143.84;88.52;45094.78;5069666;28;20518;-56
2023/09/05 01:34:47;;;;;;;9.00;6.70;;;;;;;-143.84;88.29;45134.75;5069509;28;20465;-56
2023/09/05 01:37:16;;;;;;;23.37;7.90;;;;;;;-143.84;89.86;45098.56;5069224;28;20448;-56
2023/09/05 01:39:43;;;;;;;11.60;8.20;;;;;;;-143.84;90.82;45117.63;5069136;28;20484;-56
2023/09/05 01:42:12;;;;;;;20.17;7.43;;;;;;;-143.84;91.23;45098.56;5069093;28;20445;-56
2023/09/05 01:44:39;;;;;;;18.00;7.53;;;;;;;-143.84;91.55;45098.56;5069062;28;20829;-56
2023/09/05 01:47:06;;;;;;;16.23;8.50;;;;;;;-143.84;92.12;45102.38;5069202;28;20494;-56
2023/09/05 01:49:33;;;;;;;13.17;8.43;;;;;;;-143.84;92.96;45129.03;5069141;28;21008;-56
2023/09/05 01:51:59;;;;;;;16.30;8.43;;;;;;;-143.84;93.39;45079.53;5068977;28;20440;-56
2023/09/05 01:54:27;;;;;;;14.83;8.13;;;;;;;-143.84;93.31;45115.72;5068867;28;20962;-55
2023/09/05 01:56:54;;;;;;;12.57;7.80;;;;;;;-143.84;93.14;45087.16;5068976;28;20537;-55
2023/09/05 01:59:23;;;;;;;10.47;7.40;;;;;;;-143.84;92.76;45102.38;5068704;28;20488;-55
2023/09/05 02:01:50;;;;;;;16.50;7.50;;;;;;;-143.84;92.63;45108.09;5068690;28;20484;-55
2023/09/05 02:04:17;;;;;;;12.33;7.67;;;;;;;-143.84;92.48;45087.16;5068977;28;20490;-56
2023/09/05 02:06:44;;;;;;;17.00;7.87;;;;;;;-143.84;91.92;45104.28;5068866;28;21188;-55
2023/09/05 02:09:11;;;;;;;13.37;7.43;;;;;;;-143.84;91.63;45073.81;5068814;28;20824;-56
2023/09/05 02:11:39;;;;;;;7.40;6.70;;;;;;;-143.84;90.84;45102.38;5068771;28;20954;-56
2023/09/05 02:14:06;;;;;;;18.97;6.60;;;;;;;-143.84;90.67;45108.09;5068681;28;20436;-56
2023/09/05 02:16:34;;;;;;;8.07;7.13;;;;;;;-143.84;90.39;45121.44;5068684;28;20444;-55
2023/09/05 02:19:02;;;;;;;8.10;6.90;;;;;;;-143.84;89.61;45075.72;5068147;28;20950;-55
2023/09/05 02:21:29;;;;;;;11.83;7.80;;;;;;;-143.84;89.46;45115.72;5068664;28;20868;-56
2023/09/05 02:23:56;;;;;;;7.50;6.83;;;;;;;-143.84;89.27;45100.47;5068911;28;20499;-55
2023/09/05 02:26:23;;;;;;;6.80;6.10;;;;;;;-143.84;88.64;45106.19;5068646;28;20552;-56
2023/09/05 02:28:50;;;;;;;7.07;6.30;;;;;;;-143.84;87.96;45104.28;5068400;28;20437;-56
2023/09/05 02:31:17;;;;;;;10.40;6.60;;;;;;;-143.84;88.00;45111.91;5068353;28;20441;-55
2023/09/05 02:33:45;;;;;;;14.67;6.63;;;;;;;-143.84;87.90;45123.34;5068526;28;20444;-56
2023/09/05 02:36:15;;;;;;;7.53;6.83;;;;;;;-143.84;87.87;45090.97;5068533;28;20532;-55
2023/09/05 02:38:43;;;;;;;7.57;6.23;;;;;;;-143.84;87.33;45094.78;5068620;28;20480;-55
2023/09/05 02:41:13;;;;;;;7.77;6.13;;;;;;;-143.84;87.19;45090.97;5068135;28;20472;-55
2023/09/05 02:43:41;;;;;;;9.70;6.00;;;;;;;-143.84;87.23;45071.91;5068134;28;20513;-55
2023/09/05 02:46:08;;;;;;;7.30;6.23;;;;;;;-143.84;86.76;45138.56;5068153;28;20518;-56
2023/09/05 02:48:38;;;;;;;8.83;5.70;;;;;;;-143.84;86.81;45100.47;5068239;28;20502;-56
2023/09/05 02:51:08;;;;;;;6.70;6.13;;;;;;;-143.84;86.68;45090.97;5068013;28;20828;-56
2023/09/05 02:53:35;;;;;;;9.33;5.73;;;;;;;-143.84;86.41;45083.34;5067802;28;20449;-56
2023/09/05 02:56:03;;;;;;;9.03;5.47;;;;;;;-143.84;86.14;45092.88;5068464;28;20444;-55
2023/09/05 02:58:31;;;;;;;10.43;5.93;;;;;;;-143.84;85.62;45106.19;5068002;28;20480;-56
2023/09/05 03:01:00;;;;;;;9.63;6.43;;;;;;;-143.84;86.91;45100.47;5068126;28;20484;-56
2023/09/05 03:03:28;;;;;;;7.80;6.40;;;;;;;-143.84;89.11;45121.44;5068129;28;20441;-56
2023/09/05 03:05:55;;;;;;;9.77;6.87;;;;;;;-143.84;90.18;45083.34;5068099;28;20445;-55
2023/09/05 03:08:23;;;;;;;7.83;6.40;;;;;;;-143.84;91.15;45096.66;5068002;28;20444;-55
2023/09/05 03:10:52;;;;;;;9.40;6.10;;;;;;;-143.84;92.02;45113.81;5068420;28;20522;-55
2023/09/05 03:13:20;;;;;;;11.03;6.73;;;;;;;-143.84;93.10;45102.38;5068080;28;20483;-55
2023/09/05 03:15:51;;;;;;;9.80;7.77;;;;;;;-143.84;93.49;45094.78;5067982;28;20463;-56
2023/09/05 03:18:19;;;;;;;11.20;7.73;;;;;;;-143.84;94.36;45075.72;5068167;28;21048;-55
2023/09/05 03:20:46;;;;;;;10.73;7.50;;;;;;;-143.84;95.06;45090.97;5067848;28;20887;-56
2023/09/05 03:23:13;;;;;;;9.60;7.90;;;;;;;-143.84;94.99;45106.19;5067883;28;20444;-56
2023/09/05 03:25:42;;;;;;;11.97;7.87;;;;;;;-143.84;95.49;45106.19;5068010;28;20510;-55
2023/09/05 03:28:11;;;;;;;14.97;7.83;;;;;;;-143.84;95.74;45106.19;5068070;28;20449;-55
2023/09/05 03:30:38;;;;;;;10.47;7.93;;;;;;;-143.84;96.30;45125.22;5077124;28;20504;-55
2023/09/05 03:33:06;;;;;;;10.60;8.60;;;;;;;-143.84;96.44;45134.75;5092028;28;20493;-55
2023/09/05 03:35:33;;;;;;;7.97;7.27;;;;;;;-143.84;96.64;45110.00;5067648;28;20551;-53
2023/09/05 03:38:00;;;;;;;10.90;7.70;;;;;;;-143.84;97.04;45163.31;5056198;28;20446;-53
2023/09/05 03:40:27;;;;;;;7.87;6.97;;;;;;;-143.84;97.12;45092.88;5051613;28;20472;-53
2023/09/05 03:42:56;;;;;;;9.40;6.80;;;;;;;-143.84;96.85;45119.53;5051039;28;21354;-53
2023/09/05 03:45:23;;;;;;;8.80;7.33;;;;;;;-143.84;97.14;45129.03;5051798;28;20453;-52
2023/09/05 03:47:50;;;;;;;9.63;7.57;;;;;;;-143.84;97.74;45121.44;5051555;28;20440;-53
2023/09/05 03:50:17;;;;;;;14.40;7.50;;;;;;;-143.84;98.15;45113.81;5051494;28;20511;-53
2023/09/05 03:52:45;;;;;;;13.23;8.17;;;;;;;-143.84;98.43;45129.03;5051380;28;20433;-53
2023/09/05 03:55:12;;;;;;;13.43;8.43;;;;;;;-143.84;98.80;45134.75;5053420;28;21330;-53
2023/09/05 03:57:39;;;;;;;11.20;8.20;;;;;;;-143.84;99.20;45130.94;5059826;28;20465;-53
2023/09/05 04:00:10;;;;;;;9.70;8.20;;;;;;;-143.84;99.26;45111.91;5051109;28;20497;-53
2023/09/05 04:02:37;;;;;;;10.43;7.53;;;;;;;-143.84;99.41;45117.63;5051672;28;20528;-53
2023/09/05 04:05:05;;;;;;;10.10;8.77;;;;;;;-143.84;99.38;45087.16;5051098;28;20490;-53
2023/09/05 04:07:32;;;;;;;10.37;8.27;;;;;;;-143.84;98.97;45130.94;5066001;28;20505;-53
2023/09/05 04:09:59;;;;;;;11.17;6.70;;;;;;;-143.84;98.17;45161.41;5080973;28;20474;-53
2023/09/05 04:12:26;;;;;;;11.90;7.30;;;;;;;-143.84;97.86;45134.75;5083694;28;20449;-53
2023/09/05 04:14:53;;;;;;;10.13;7.43;;;;;;;-143.84;97.55;45117.63;5071376;28;20447;-53
2023/09/05 04:17:22;;;;;;;7.60;6.90;;;;;;;-143.84;97.22;45113.81;5070890;28;20505;-53
2023/09/05 04:19:53;;;;;;;8.13;7.07;;;;;;;-143.84;97.37;45132.84;5071048;28;20453;-53
2023/09/05 04:22:21;;;;;;;10.37;7.20;;;;;;;-143.84;97.40;45108.09;5070814;28;20636;-53
2023/09/05 04:24:52;;;;;;;8.73;7.73;;;;;;;-143.84;97.55;45146.19;5070685;28;20440;-53
2023/09/05 04:27:21;;;;;;;13.23;7.57;;;;;;;-143.84;98.06;45132.84;5071158;28;20984;-53
2023/09/05 04:29:51;;;;;;;7.90;7.10;;;;;;;-143.84;98.24;45117.63;5070647;28;20440;-53
2023/09/05 04:32:19;;;;;;;9.53;7.20;;;;;;;-143.84;98.50;45117.63;5070765;28;20444;-53
2023/09/05 04:34:48;;;;;;;13.07;8.03;;;;;;;-143.84;98.52;45136.66;5070969;28;20797;-53
2023/09/05 04:37:17;;;;;;;11.30;8.33;;;;;;;-143.84;98.61;45132.84;5070659;28;21328;-53
2023/09/05 04:39:44;;;;;;;12.13;7.53;;;;;;;-143.84;98.81;45123.34;5070287;28;20543;-53
2023/09/05 04:42:11;;;;;;;8.10;7.30;;;;;;;-143.84;98.61;45129.03;5070232;28;20477;-53
2023/09/05 04:44:38;;;;;;;12.00;7.67;;;;;;;-143.84;98.68;45146.19;5070453;28;20501;-53
2023/09/05 04:47:22;;;;;;;7.57;6.77;;;;;;;-143.84;98.88;45104.28;5070500;28;20436;-53
2023/09/05 04:49:52;;;;;;;9.70;6.47;;;;;;;-143.84;98.69;45138.56;5070416;28;20439;-53
2023/09/05 04:52:20;;;;;;;8.03;6.60;;;;;;;-143.84;98.48;45142.38;5070348;28;20444;-53
2023/09/05 04:54:47;;;;;;;7.43;6.70;;;;;;;-143.84;97.95;45127.13;5070313;28;20444;-53
2023/09/05 04:57:16;;;;;;;7.33;6.43;;;;;;;-143.84;97.91;45121.44;5070348;28;20433;-53
2023/09/05 04:59:44;;;;;;;7.30;6.20;;;;;;;-143.84;97.72;45134.75;5069971;28;20571;-53
2023/09/05 05:02:12;;;;;;;9.00;7.10;;;;;;;-143.84;97.78;45119.53;5070501;28;20627;-53
2023/09/05 05:04:40;;;;;;;10.10;6.70;;;;;;;-143.84;97.04;45089.06;5070211;28;20436;-53
2023/09/05 05:07:09;;;;;;;10.97;7.33;;;;;;;-143.84;96.86;45127.13;5069948;28;20927;-53
2023/09/05 05:09:37;;;;;;;8.90;6.80;;;;;;;-143.84;96.57;45125.22;5070183;28;20448;-53
2023/09/05 05:12:04;;;;;;;7.03;6.33;;;;;;;-143.84;96.39;45123.34;5070009;28;20506;-53
2023/09/05 05:14:31;;;;;;;6.57;5.87;;;;;;;-143.84;96.56;45104.28;5069939;28;20441;-53
2023/09/05 05:16:58;;;;;;;11.73;6.77;;;;;;;-143.84;96.58;45117.63;5070194;28;20467;-53
2023/09/05 05:19:26;;;;;;;13.20;5.90;;;;;;;-143.84;95.91;45129.03;5070073;28;20441;-53
2023/09/05 05:21:53;;;;;;;11.40;6.70;;;;;;;-143.84;95.56;45140.47;5069622;28;20514;-53
2023/09/05 05:24:22;;;;;;;8.67;6.13;;;;;;;-143.84;95.25;45127.13;5070150;28;20489;-53
2023/09/05 05:26:50;;;;;;;7.80;5.23;;;;;;;-143.84;94.91;45098.56;5069658;28;20515;-53
2023/09/05 05:29:17;;;;;;;7.20;5.33;;;;;;;-143.84;94.54;45151.91;5069839;28;20470;-53
2023/09/05 05:31:44;;;;;;;6.33;5.67;;;;;;;-143.84;94.57;45106.19;5069681;28;20452;-53
2023/09/05 05:34:11;;;;;;;9.00;5.87;;;;;;;-143.84;94.00;45121.44;5069643;28;20441;-53
2023/09/05 05:36:38;;;;;;;5.60;5.10;;;;;;;-143.84;93.35;45119.53;5069488;28;20447;-53
2023/09/05 05:39:05;;;;;;;9.53;5.30;;;;;;;-143.84;93.05;45108.09;5069682;28;20509;-53
2023/09/05 05:41:35;;;;;;;9.03;5.83;;;;;;;-143.84;92.96;45092.88;5069341;28;21283;-53
2023/09/05 05:44:02;;;;;;;10.37;5.30;;;;;;;-143.84;92.43;45134.75;5069304;28;20441;-52
2023/09/05 05:46:30;;;;;;;6.73;5.00;;;;;;;-143.84;91.87;45111.91;5069596;28;20437;-53
2023/09/05 05:48:58;;;;;;;7.43;5.60;;;;;;;-143.84;90.69;45117.63;5069130;28;20433;-53
2023/09/05 05:51:27;;;;;;;10.90;5.30;;;;;;;-143.84;91.27;45083.34;5069211;28;20854;-53
2023/09/05 05:53:54;;;;;;;5.63;5.13;;;;;;;-143.84;90.76;45115.72;5068915;28;20429;-52
2023/09/05 05:56:21;;;;;;;12.33;5.67;;;;;;;-143.84;90.35;45106.19;5069109;28;20471;-53
2023/09/05 05:58:49;;;;;;;6.23;5.53;;;;;;;-143.84;90.09;45129.03;5069120;28;21061;-53
2023/09/05 06:01:18;;;;;;;9.27;5.23;;;;;;;-143.84;89.59;45115.72;5068947;28;21055;-53
2023/09/05 06:03:45;;;;;;;5.47;4.97;;;;;;;-143.84;89.40;45123.34;5069041;28;20564;-53
2023/09/05 06:06:12;;;;;;;6.97;5.13;;;;;;;-143.84;88.83;45123.34;5068734;28;20494;-53
2023/09/05 06:08:40;;;;;;;21.63;5.90;;;;;;;-143.84;88.84;45102.38;5068889;28;20520;-53
2023/09/05 06:11:07;;;;;;;8.63;4.80;;;;;;;-143.84;88.97;45113.81;5069334;28;20459;-53
2023/09/05 06:13:34;;;;;;;6.13;4.60;;;;;;;-143.84;87.76;45110.00;5069034;28;20439;-53
2023/09/05 06:16:03;;;;;;;10.80;5.13;;;;;;;-143.84;87.66;45130.94;5068960;28;20478;-52
2023/09/05 06:18:30;;;;;;;7.40;4.40;;;;;;;-143.84;87.55;45140.47;5068847;28;20444;-53
2023/09/05 06:20:57;;;;;;;6.97;4.73;;;;;;;-143.84;87.71;45119.53;5068522;28;20436;-52
2023/09/05 06:23:24;;;;;;;9.10;5.40;;;;;;;-143.84;89.21;45106.19;5069087;28;20505;-53
2023/09/05 06:25:51;;;;;;;12.70;5.50;;;;;;;-143.84;92.46;45104.28;5068989;28;20441;-53
2023/09/05 06:28:18;;;;;;;9.10;5.73;;;;;;;-143.84;92.33;45111.91;5068765;28;20966;-53
2023/09/05 06:30:46;;;;;;;9.90;5.83;;;;;;;-143.84;92.56;45129.03;5068787;28;20934;-53
2023/09/05 06:33:14;;;;;;;8.80;4.97;;;;;;;-143.84;93.12;45106.19;5068766;28;20847;-52
2023/09/05 06:35:41;;;;;;;14.80;6.00;;;;;;;-143.84;94.19;45123.34;5068363;28;20444;-53
2023/09/05 06:38:10;;;;;;;7.70;5.17;;;;;;;-143.84;94.74;45134.75;5068600;28;20432;-53
2023/09/05 06:40:39;;;;;;;12.13;5.00;;;;;;;-143.84;94.24;45117.63;5068489;28;20863;-53
2023/09/05 06:43:07;;;;;;;7.80;5.13;;;;;;;-143.84;94.67;45115.72;5068948;28;20480;-53
2023/09/05 06:45:34;;;;;;;12.50;6.50;;;;;;;-143.84;94.79;45134.75;5068392;28;20443;-53
2023/09/05 06:48:01;;;;;;;11.43;6.77;;;;;;;-143.84;95.56;45117.63;5068625;28;20437;-53
2023/09/05 06:50:30;;;;;;;16.67;6.27;;;;;;;-143.84;96.35;45132.84;5068428;28;20470;-53
2023/09/05 06:52:57;;;;;;;10.30;5.67;;;;;;;-143.84;97.29;45123.34;5068836;28;20854;-53
2023/09/05 06:55:24;;;;;;;17.70;7.10;;;;;;;-143.84;98.60;45115.72;5068383;28;20445;-53
2023/09/05 06:57:51;;;;;;;8.03;6.60;;;;;;;-143.84;99.20;45134.75;5068393;28;20445;-53
2023/09/05 07:00:27;;;;;;;17.13;7.00;;;;;;;-143.84;99.40;45130.94;5068234;28;20530;-53
2023/09/05 07:02:55;;;;;;;9.93;7.50;;;;;;;-143.84;99.68;45125.22;5068381;28;20537;-52
2023/09/05 07:05:22;;;;;;;12.53;6.30;;;;;;;-143.84;100.00;45117.63;5071934;28;20436;-53
2023/09/05 07:07:50;;;;;;;7.97;6.83;;;;;;;-143.84;100.00;45110.00;5072523;28;21195;-53
2023/09/05 07:10:17;;;;;;;14.23;6.87;;;;;;;-143.84;100.00;45127.13;5072465;28;20483;-53
2023/09/05 07:12:44;;;;;;;14.60;7.17;;;;;;;-143.84;100.00;45129.03;5072184;28;20448;-53
2023/09/05 07:15:11;;;;;;;10.77;6.07;;;;;;;-143.84;100.00;45106.19;5072308;28;20996;-53
2023/09/05 07:17:39;;;;;;;16.27;7.00;;;;;;;-143.84;100.00;45132.84;5072487;28;20437;-53
2023/09/05 07:20:09;;;;;;;14.33;6.83;;;;;;;-143.84;100.00;45098.56;5072528;28;20432;-53
2023/09/05 07:22:37;;;;;;;25.63;8.33;;;;;;;-143.84;100.00;45106.19;5072133;28;20531;-53
2023/09/05 07:25:06;;;;;;;15.30;8.30;;;;;;;-143.84;100.00;45125.22;5072255;28;20437;-53
2023/09/05 07:27:34;;;;;;;12.83;7.27;;;;;;;-143.84;100.00;45132.84;5060014;28;20456;-58
2023/09/05 07:30:01;;;;;;;16.07;6.50;;;;;;;-143.84;100.00;45119.53;5057131;28;20449;-58
2023/09/05 07:32:28;;;;;;;11.97;6.23;;;;;;;-143.84;100.00;45127.13;5051548;28;21104;-58
2023/09/05 07:34:55;;;;;;;8.73;6.80;;;;;;;-143.84;100.00;45110.00;5051711;28;20437;-58
2023/09/05 07:37:22;;;;;;;15.57;7.20;;;;;;;-143.84;100.00;45127.13;5051832;28;20437;-58
2023/09/05 07:39:50;;;;;;;11.97;8.07;;;;;;;-143.84;100.00;45127.13;5051653;28;20452;-58
2023/09/05 07:42:19;;;;;;;10.70;7.70;;;;;;;-143.84;100.00;45136.66;5051445;28;20496;-58
2023/09/05 07:44:47;;;;;;;16.27;7.37;;;;;;;-143.84;100.00;45142.38;5051598;28;20445;-58
2023/09/05 07:47:14;;;;;;;9.10;7.03;;;;;;;-143.84;100.00;45148.09;5051094;28;20441;-58
2023/09/05 07:49:42;;;;;;;8.33;6.03;;;;;;;-143.84;100.00;45121.44;5051310;28;20430;-58
2023/09/05 07:52:09;;;;;;;10.03;7.20;;;;;;;-143.84;100.00;45129.03;5051399;28;20951;-58
2023/09/05 07:54:36;;;;;;;13.20;6.77;;;;;;;-143.84;100.00;45108.09;5051456;28;20434;-58
2023/09/05 07:57:04;;;;;;;9.70;6.20;;;;;;;-143.84;100.00;45121.44;5051387;28;20441;-58
2023/09/05 07:59:32;;;;;;;9.93;6.77;;;;;;;-143.84;100.00;45123.34;5051193;28;20523;-58
2023/09/05 08:02:00;;;;;;;11.30;6.87;;;;;;;-143.84;100.00;45075.72;5050770;28;20489;-58
2023/09/05 08:04:28;;;;;;;8.87;6.40;;;;;;;-143.84;100.00;45130.94;5051114;28;20434;-58
2023/09/05 08:06:55;;;;;;;8.83;5.53;;;;;;;-143.84;100.00;45129.03;5050822;28;20438;-58
2023/09/05 08:09:22;;;;;;;16.77;7.67;;;;;;;-143.84;100.00;45113.81;5050853;28;20861;-58
2023/09/05 08:11:49;;;;;;;10.10;6.37;;;;;;;-143.84;100.00;45117.63;5051528;28;20434;-58
2023/09/05 08:14:17;;;;;;;9.63;5.60;;;;;;;-143.84;99.96;45115.72;5051213;28;21113;-58
2023/09/05 08:16:45;;;;;;;16.73;7.03;;;;;;;-143.84;100.00;45104.28;5049246;28;20445;-59
2023/09/05 08:19:12;;;;;;;13.67;6.50;;;;;;;-143.84;99.66;45100.47;5050729;28;20491;-58
2023/09/05 08:21:39;;;;;;;13.60;6.10;;;;;;;-143.84;99.00;45125.22;5050816;28;20764;-58
2023/09/05 08:24:07;;;;;;;17.63;6.80;;;;;;;-143.84;98.86;45108.09;5050780;28;20503;-58
2023/09/05 08:26:36;;;;;;;15.77;6.33;;;;;;;-143.84;98.26;45102.38;5051220;28;20446;-58
2023/09/05 08:29:03;;;;;;;9.90;4.70;;;;;;;-143.84;98.02;45094.78;5050856;28;20894;-58
2023/09/05 08:31:31;;;;;;;13.57;6.10;;;;;;;-143.84;97.02;45134.75;5050061;28;20548;-58
2023/09/05 08:34:00;;;;;;;7.90;4.90;;;;;;;-143.84;97.26;45117.63;5050564;28;20507;-58
2023/09/05 08:36:27;;;;;;;8.20;6.63;;;;;;;-143.84;97.29;45127.13;5050542;28;20446;-58
2023/09/05 08:38:55;;;;;;;6.83;5.17;;;;;;;-143.84;97.16;45125.22;5050739;28;20489;-58
2023/09/05 08:41:22;;;;;;;11.00;6.93;;;;;;;-143.84;96.16;45092.88;5050642;28;21255;-58
2023/09/05 08:43:49;;;;;;;13.83;4.87;;;;;;;-143.84;95.79;45121.44;5050723;28;20477;-58
2023/09/05 08:46:18;;;;;;;9.33;5.60;;;;;;;-143.84;95.21;45098.56;5049903;28;20997;-58
2023/09/05 08:48:45;;;;;;;9.33;5.07;;;;;;;-143.84;93.88;45110.00;5050726;28;20934;-58
2023/09/05 08:51:18;;;;;;;15.60;4.83;;;;;;;-143.84;93.31;45108.09;5050541;28;20544;-58
2023/09/05 08:53:53;;;;;;;10.33;5.17;;;;;;;-143.84;92.80;45119.53;5050380;28;20847;-58
2023/09/05 08:56:21;;;;;;;13.57;5.80;;;;;;;-143.84;93.02;45098.56;5050224;28;20503;-58
2023/09/05 08:58:49;;;;;;;10.90;5.40;;;;;;;-143.84;92.27;45087.16;5049670;28;20492;-58
2023/09/05 09:01:16;;;;;;;9.93;5.47;;;;;;;-143.84;92.42;45119.53;5049465;28;20418;-58
2023/09/05 09:03:43;;;;;;;11.17;6.43;;;;;;;-143.84;92.63;45094.78;5049912;28;20481;-58
2023/09/05 09:06:10;;;;;;;13.10;5.40;;;;;;;-143.84;91.68;45094.78;5050164;28;20795;-58
2023/09/05 09:08:44;;;;;;;23.30;5.87;;;;;;;-143.84;91.23;45073.81;5049859;28;20442;-58
2023/09/05 09:11:12;;;;;;;6.10;5.30;;;;;;;-143.84;90.58;45125.22;5050229;28;20430;-58
2023/09/05 09:13:40;;;;;;;12.60;5.70;;;;;;;-143.84;89.93;45098.56;5050063;28;20524;-58
2023/09/05 09:16:07;;;;;;;20.63;6.50;;;;;;;-143.84;89.70;45098.56;5049503;28;20452;-58
2023/09/05 09:18:34;;;;;;;11.10;5.77;;;;;;;-143.84;89.63;45085.25;5049750;28;20433;-58
2023/09/05 09:21:05;;;;;;;10.00;5.57;;;;;;;-143.84;88.73;45087.16;5049769;28;20437;-58
2023/09/05 09:23:35;;;;;;;14.30;6.87;;;;;;;-143.84;88.72;45087.16;5049741;28;21038;-58
2023/09/05 09:26:06;;;;;;;10.50;5.53;;;;;;;-143.84;88.31;45087.16;5049405;28;20511;-58
2023/09/05 09:28:33;;;;;;;11.83;5.80;;;;;;;-143.84;87.49;45090.97;5049245;28;20449;-58
2023/09/05 09:31:02;;;;;;;20.87;5.90;;;;;;;-143.84;87.45;45100.47;5049307;28;20437;-58
2023/09/05 09:33:30;;;;;;;32.93;6.33;;;;;;;-143.84;87.44;45079.53;5075519;28;20459;-58
2023/09/05 09:36:09;;;;;;;14.60;5.70;;;;;;;-143.84;86.74;45111.91;5089863;28;20504;-59
2023/09/05 09:38:38;;;;;;;10.40;5.40;;;;;;;-143.84;86.84;45079.53;5089644;28;20944;-58
2023/09/05 09:41:09;;;;;;;9.27;5.93;;;;;;;-143.84;87.08;45081.44;5089492;28;20447;-58
2023/09/05 09:43:37;;;;;;;20.63;6.23;;;;;;;-143.84;86.98;45117.63;5089256;28;20478;-59
2023/09/05 09:46:06;;;;;;;19.40;6.37;;;;;;;-143.84;86.94;45068.13;5088898;28;20440;-58
2023/09/05 09:48:34;;;;;;;12.50;6.40;;;;;;;-143.84;86.59;45077.63;5089542;28;20440;-58
2023/09/05 09:51:05;;;;;;;8.90;7.23;;;;;;;-143.84;87.18;45081.44;5089484;28;20789;-58
2023/09/05 09:53:37;;;;;;;22.77;6.47;;;;;;;-143.84;86.85;45047.16;5089137;28;20847;-58
2023/09/05 09:56:10;;;;;;;12.13;6.43;;;;;;;-143.84;87.42;45079.53;5088940;28;20813;-58
2023/09/05 09:58:40;;;;;;;10.67;6.50;;;;;;;-143.84;87.07;45089.06;5089006;28;20476;-58
2023/09/05 10:01:11;;;;;;;11.20;5.80;;;;;;;-143.84;87.20;45102.38;5088556;28;20455;-58
2023/09/05 10:03:40;;;;;;;8.87;6.43;;;;;;;-143.84;87.15;45075.72;5089154;28;20486;-58
2023/09/05 10:06:08;;;;;;;10.57;6.53;;;;;;;-143.84;86.98;45079.53;5089154;28;20452;-58
2023/09/05 10:08:36;;;;;;;8.27;6.20;;;;;;;-143.84;87.85;45073.81;5089218;28;20447;-58
2023/09/05 10:11:04;;;;;;;8.83;6.83;;;;;;;-143.84;87.97;45083.34;5089271;28;21026;-58
2023/09/05 10:13:35;;;;;;;15.20;6.40;;;;;;;-143.84;88.02;45081.44;5062299;28;20452;-58
2023/09/05 10:16:02;;;;;;;9.07;6.67;;;;;;;-143.84;88.27;45096.66;5050063;28;20494;-58
2023/09/05 10:18:32;;;;;;;11.63;7.03;;;;;;;-143.84;87.66;45087.16;5048624;28;20446;-59
2023/09/05 10:21:01;;;;;;;13.33;7.57;;;;;;;-143.84;88.93;45094.78;5049892;28;20450;-56
2023/09/05 10:23:33;;;;;;;15.33;8.30;;;;;;;-143.84;88.70;45062.41;5063932;28;21184;-56
2023/09/05 10:26:03;;;;;;;15.50;7.20;;;;;;;-143.84;88.82;45060.50;5049632;28;20487;-56
2023/09/05 10:28:32;;;;;;;9.73;7.40;;;;;;;-143.84;89.18;45079.53;5049722;28;20434;-56
2023/09/05 10:31:06;;;;;;;15.20;7.90;;;;;;;-143.84;89.65;45100.47;5049846;28;20517;-56
2023/09/05 10:33:34;;;;;;;10.90;7.40;;;;;;;-143.84;89.67;45100.47;5049365;28;20500;-56
2023/09/05 10:36:02;;;;;;;16.57;7.37;;;;;;;-143.84;89.92;45089.06;5049322;28;20448;-56
2023/09/05 10:38:33;;;;;;;15.43;7.77;;;;;;;-143.84;89.33;45094.78;5048120;28;20503;-56
2023/09/05 10:41:00;;;;;;;11.07;7.13;;;;;;;-143.84;89.30;45104.28;5049022;28;20445;-56
2023/09/05 10:43:29;;;;;;;11.53;7.13;;;;;;;-143.84;89.03;45089.06;5064586;28;21023;-56
2023/09/05 10:46:00;;;;;;;11.40;7.53;;;;;;;-143.84;88.56;45071.91;5049198;28;21156;-56
2023/09/05 10:48:40;;;;;;;21.97;7.50;;;;;;;-143.84;89.31;45071.91;5049182;28;20448;-56
2023/09/05 10:51:10;;;;;;;14.90;7.70;;;;;;;-143.84;88.70;45089.06;5049632;28;20507;-56
2023/09/05 10:53:39;;;;;;;15.90;7.70;;;;;;;-143.84;89.13;45090.97;5048662;28;20441;-56
2023/09/05 10:56:27;;;;;;;11.70;7.20;;;;;;;-143.84;89.55;45094.78;5049130;28;20449;-56
2023/09/05 10:58:58;;;;;;;9.37;7.30;;;;;;;-143.84;88.99;45073.81;5049252;28;20477;-56
2023/09/05 11:01:52;;;;;;;19.40;7.57;;;;;;;-143.84;88.16;45068.13;5049421;28;20438;-56
2023/09/05 11:04:29;;;;;;;17.10;7.07;;;;;;;-143.84;88.78;45089.06;5048958;28;20571;-56
2023/09/05 11:06:58;;;;;;;13.70;7.20;;;;;;;-143.84;88.03;45092.88;5048916;28;20524;-56
2023/09/05 11:09:25;;;;;;;16.60;6.90;;;;;;;-143.84;87.82;45098.56;5048773;28;20940;-56
2023/09/05 11:11:54;;;;;;;8.40;7.50;;;;;;;-143.84;87.73;45090.97;5064282;28;20874;-56
2023/09/05 11:14:34;;;;;;;8.80;7.03;;;;;;;-143.84;87.75;45056.69;5069432;28;20471;-56
2023/09/05 11:17:02;;;;;;;18.10;7.33;;;;;;;-143.84;87.39;45070.00;5068989;28;20828;-56